sensor_id;sensor_type;location;lat;lon;timestamp;P1;durP1;ratioP1;P2;durP2;ratioP2
60847;SDS011;46681;47.696;9.140;2023-04-01T00:00:59;1.30;;;1.17;;
60847;SDS011;46681;47.696;9.140;2023-04-01T00:03:27;0.80;;;0.80;;
60847;SDS011;46681;47.696;9.140;2023-04-01T00:06:03;1.60;;;1.03;;
60847;SDS011;46681;47.696;9.140;2023-04-01T00:08:32;1.33;;;1.23;;
60847;SDS011;46681;47.696;9.140;2023-04-01T00:10:58;1.40;;;1.30;;
60847;SDS011;46681;47.696;9.140;2023-04-01T00:13:24;1.67;;;1.57;;
60847;SDS011;46681;47.696;9.140;2023-04-01T00:15:54;1.27;;;1.17;;
60847;SDS011;46681;47.696;9.140;2023-04-01T00:18:34;2.77;;;1.10;;
60847;SDS011;46681;47.696;9.140;2023-04-01T00:21:04;0.90;;;0.90;;
60847;SDS011;46681;47.696;9.140;2023-04-01T00:23:31;1.10;;;1.00;;
60847;SDS011;46681;47.696;9.140;2023-04-01T00:26:01;1.87;;;1.57;;
60847;SDS011;46681;47.696;9.140;2023-04-01T00:28:28;1.30;;;1.10;;
60847;SDS011;46681;47.696;9.140;2023-04-01T00:31:04;2.63;;;1.40;;
60847;SDS011;46681;47.696;9.140;2023-04-01T00:33:34;5.30;;;1.30;;
60847;SDS011;46681;47.696;9.140;2023-04-01T00:36:19;1.13;;;1.03;;
60847;SDS011;46681;47.696;9.140;2023-04-01T00:38:49;1.43;;;1.03;;
60847;SDS011;46681;47.696;9.140;2023-04-01T00:41:25;2.63;;;1.30;;
60847;SDS011;46681;47.696;9.140;2023-04-01T00:43:51;1.13;;;1.00;;
60847;SDS011;46681;47.696;9.140;2023-04-01T00:46:18;2.90;;;1.30;;
60847;SDS011;46681;47.696;9.140;2023-04-01T00:48:50;1.37;;;1.27;;
60847;SDS011;46681;47.696;9.140;2023-04-01T00:51:27;1.43;;;1.00;;
60847;SDS011;46681;47.696;9.140;2023-04-01T00:53:58;2.37;;;1.20;;
60847;SDS011;46681;47.696;9.140;2023-04-01T00:56:30;0.80;;;0.80;;
60847;SDS011;46681;47.696;9.140;2023-04-01T00:59:35;1.43;;;1.10;;
60847;SDS011;46681;47.696;9.140;2023-04-01T01:02:08;1.43;;;0.90;;
60847;SDS011;46681;47.696;9.140;2023-04-01T01:04:39;1.17;;;0.90;;
60847;SDS011;46681;47.696;9.140;2023-04-01T01:23:22;1.07;;;0.73;;
60847;SDS011;46681;47.696;9.140;2023-04-01T01:37:25;0.97;;;0.70;;
60847;SDS011;46681;47.696;9.140;2023-04-01T01:39:55;1.17;;;1.10;;
60847;SDS011;46681;47.696;9.140;2023-04-01T01:42:29;1.07;;;0.80;;
60847;SDS011;46681;47.696;9.140;2023-04-01T01:45:02;0.90;;;0.90;;
60847;SDS011;46681;47.696;9.140;2023-04-01T01:47:34;0.80;;;0.80;;
60847;SDS011;46681;47.696;9.140;2023-04-01T01:50:01;0.90;;;0.90;;
60847;SDS011;46681;47.696;9.140;2023-04-01T01:52:34;0.80;;;0.80;;
60847;SDS011;46681;47.696;9.140;2023-04-01T01:55:00;1.70;;;0.77;;
60847;SDS011;46681;47.696;9.140;2023-04-01T01:57:26;1.43;;;0.73;;
60847;SDS011;46681;47.696;9.140;2023-04-01T01:59:57;0.80;;;0.80;;
60847;SDS011;46681;47.696;9.140;2023-04-01T02:02:41;1.23;;;0.90;;
60847;SDS011;46681;47.696;9.140;2023-04-01T02:05:10;0.93;;;0.80;;
60847;SDS011;46681;47.696;9.140;2023-04-01T02:07:44;0.90;;;0.90;;
60847;SDS011;46681;47.696;9.140;2023-04-01T02:10:15;0.87;;;0.80;;
60847;SDS011;46681;47.696;9.140;2023-04-01T02:12:44;1.33;;;0.80;;
60847;SDS011;46681;47.696;9.140;2023-04-01T02:15:14;2.07;;;1.30;;
60847;SDS011;46681;47.696;9.140;2023-04-01T02:17:43;1.07;;;1.07;;
60847;SDS011;46681;47.696;9.140;2023-04-01T02:22:51;1.90;;;1.23;;
60847;SDS011;46681;47.696;9.140;2023-04-01T02:25:30;0.80;;;0.80;;
60847;SDS011;46681;47.696;9.140;2023-04-01T02:28:03;0.70;;;0.70;;
60847;SDS011;46681;47.696;9.140;2023-04-01T02:30:38;2.73;;;1.07;;
60847;SDS011;46681;47.696;9.140;2023-04-01T02:33:07;2.67;;;1.07;;
60847;SDS011;46681;47.696;9.140;2023-04-01T02:35:35;1.97;;;1.00;;
60847;SDS011;46681;47.696;9.140;2023-04-01T02:38:05;1.27;;;0.80;;
60847;SDS011;46681;47.696;9.140;2023-04-01T02:40:40;0.90;;;0.90;;
60847;SDS011;46681;47.696;9.140;2023-04-01T02:43:11;1.77;;;1.00;;
60847;SDS011;46681;47.696;9.140;2023-04-01T02:45:37;1.60;;;0.93;;
60847;SDS011;46681;47.696;9.140;2023-04-01T02:48:03;0.83;;;0.83;;
60847;SDS011;46681;47.696;9.140;2023-04-01T02:50:28;1.70;;;1.10;;
60847;SDS011;46681;47.696;9.140;2023-04-01T02:52:54;2.00;;;1.30;;
60847;SDS011;46681;47.696;9.140;2023-04-01T02:55:26;1.03;;;0.87;;
60847;SDS011;46681;47.696;9.140;2023-04-01T02:57:53;2.33;;;1.13;;
60847;SDS011;46681;47.696;9.140;2023-04-01T03:00:18;2.43;;;1.20;;
60847;SDS011;46681;47.696;9.140;2023-04-01T03:02:44;1.37;;;1.00;;
60847;SDS011;46681;47.696;9.140;2023-04-01T03:05:10;1.73;;;0.90;;
60847;SDS011;46681;47.696;9.140;2023-04-01T03:07:36;1.30;;;1.20;;
60847;SDS011;46681;47.696;9.140;2023-04-01T03:10:05;3.17;;;1.27;;
60847;SDS011;46681;47.696;9.140;2023-04-01T03:12:32;1.10;;;1.10;;
60847;SDS011;46681;47.696;9.140;2023-04-01T03:15:03;1.33;;;1.00;;
60847;SDS011;46681;47.696;9.140;2023-04-01T03:17:30;1.67;;;1.47;;
60847;SDS011;46681;47.696;9.140;2023-04-01T03:19:56;1.30;;;1.20;;
60847;SDS011;46681;47.696;9.140;2023-04-01T03:22:23;1.43;;;1.00;;
60847;SDS011;46681;47.696;9.140;2023-04-01T03:24:49;0.93;;;0.93;;
60847;SDS011;46681;47.696;9.140;2023-04-01T03:27:17;1.23;;;1.10;;
60847;SDS011;46681;47.696;9.140;2023-04-01T03:29:43;1.20;;;1.10;;
60847;SDS011;46681;47.696;9.140;2023-04-01T03:32:10;1.43;;;1.30;;
60847;SDS011;46681;47.696;9.140;2023-04-01T03:34:49;1.80;;;1.20;;
60847;SDS011;46681;47.696;9.140;2023-04-01T03:37:14;2.47;;;1.60;;
60847;SDS011;46681;47.696;9.140;2023-04-01T03:39:41;2.27;;;1.40;;
60847;SDS011;46681;47.696;9.140;2023-04-01T03:42:09;1.83;;;1.10;;
60847;SDS011;46681;47.696;9.140;2023-04-01T03:44:37;1.37;;;1.20;;
60847;SDS011;46681;47.696;9.140;2023-04-01T03:47:03;2.93;;;1.10;;
60847;SDS011;46681;47.696;9.140;2023-04-01T03:49:28;3.20;;;1.40;;
60847;SDS011;46681;47.696;9.140;2023-04-01T03:51:54;1.87;;;1.10;;
60847;SDS011;46681;47.696;9.140;2023-04-01T03:54:20;2.70;;;1.50;;
60847;SDS011;46681;47.696;9.140;2023-04-01T03:56:48;1.83;;;1.30;;
60847;SDS011;46681;47.696;9.140;2023-04-01T03:59:16;2.70;;;1.60;;
60847;SDS011;46681;47.696;9.140;2023-04-01T04:01:47;3.00;;;1.17;;
60847;SDS011;46681;47.696;9.140;2023-04-01T04:04:17;1.97;;;1.30;;
60847;SDS011;46681;47.696;9.140;2023-04-01T04:06:49;3.37;;;1.30;;
60847;SDS011;46681;47.696;9.140;2023-04-01T04:09:15;1.63;;;1.30;;
60847;SDS011;46681;47.696;9.140;2023-04-01T04:11:41;3.70;;;1.60;;
60847;SDS011;46681;47.696;9.140;2023-04-01T04:14:06;3.90;;;1.47;;
60847;SDS011;46681;47.696;9.140;2023-04-01T04:16:32;2.83;;;1.40;;
60847;SDS011;46681;47.696;9.140;2023-04-01T04:19:00;2.33;;;1.40;;
60847;SDS011;46681;47.696;9.140;2023-04-01T04:21:27;4.00;;;1.60;;
60847;SDS011;46681;47.696;9.140;2023-04-01T04:24:01;2.20;;;1.50;;
60847;SDS011;46681;47.696;9.140;2023-04-01T04:26:30;3.43;;;1.50;;
60847;SDS011;46681;47.696;9.140;2023-04-01T04:28:56;3.27;;;1.40;;
60847;SDS011;46681;47.696;9.140;2023-04-01T04:31:24;3.53;;;1.37;;
60847;SDS011;46681;47.696;9.140;2023-04-01T04:33:51;2.77;;;1.30;;
60847;SDS011;46681;47.696;9.140;2023-04-01T04:36:21;1.80;;;1.30;;
60847;SDS011;46681;47.696;9.140;2023-04-01T04:38:49;2.43;;;1.40;;
60847;SDS011;46681;47.696;9.140;2023-04-01T04:41:30;2.00;;;1.30;;
60847;SDS011;46681;47.696;9.140;2023-04-01T04:43:59;1.50;;;1.20;;
60847;SDS011;46681;47.696;9.140;2023-04-01T04:46:24;2.50;;;1.20;;
60847;SDS011;46681;47.696;9.140;2023-04-01T04:48:51;1.60;;;1.20;;
60847;SDS011;46681;47.696;9.140;2023-04-01T04:51:17;2.93;;;1.40;;
60847;SDS011;46681;47.696;9.140;2023-04-01T04:53:49;1.63;;;1.03;;
60847;SDS011;46681;47.696;9.140;2023-04-01T04:56:19;1.10;;;1.10;;
60847;SDS011;46681;47.696;9.140;2023-04-01T04:58:49;2.60;;;1.30;;
60847;SDS011;46681;47.696;9.140;2023-04-01T05:01:15;2.03;;;1.20;;
60847;SDS011;46681;47.696;9.140;2023-04-01T05:03:42;1.33;;;1.17;;
60847;SDS011;46681;47.696;9.140;2023-04-01T05:06:09;1.90;;;1.00;;
60847;SDS011;46681;47.696;9.140;2023-04-01T05:08:36;1.70;;;1.30;;
60847;SDS011;46681;47.696;9.140;2023-04-01T05:11:03;1.40;;;1.30;;
60847;SDS011;46681;47.696;9.140;2023-04-01T05:13:31;1.97;;;1.30;;
60847;SDS011;46681;47.696;9.140;2023-04-01T05:15:57;1.90;;;1.50;;
60847;SDS011;46681;47.696;9.140;2023-04-01T05:18:26;1.47;;;1.37;;
60847;SDS011;46681;47.696;9.140;2023-04-01T05:21:06;2.50;;;1.30;;
60847;SDS011;46681;47.696;9.140;2023-04-01T05:23:43;1.20;;;1.00;;
60847;SDS011;46681;47.696;9.140;2023-04-01T05:26:12;5.17;;;1.30;;
60847;SDS011;46681;47.696;9.140;2023-04-01T05:28:42;1.70;;;1.27;;
60847;SDS011;46681;47.696;9.140;2023-04-01T05:31:12;1.20;;;1.10;;
60847;SDS011;46681;47.696;9.140;2023-04-01T05:33:38;3.47;;;1.47;;
60847;SDS011;46681;47.696;9.140;2023-04-01T05:36:09;3.10;;;1.20;;
60847;SDS011;46681;47.696;9.140;2023-04-01T05:38:41;2.03;;;1.03;;
60847;SDS011;46681;47.696;9.140;2023-04-01T05:41:08;2.60;;;1.27;;
60847;SDS011;46681;47.696;9.140;2023-04-01T05:43:37;2.30;;;1.20;;
60847;SDS011;46681;47.696;9.140;2023-04-01T05:46:03;3.03;;;1.37;;
60847;SDS011;46681;47.696;9.140;2023-04-01T05:48:35;1.03;;;1.00;;
60847;SDS011;46681;47.696;9.140;2023-04-01T05:51:02;2.23;;;1.30;;
60847;SDS011;46681;47.696;9.140;2023-04-01T05:53:43;1.97;;;1.07;;
60847;SDS011;46681;47.696;9.140;2023-04-01T05:56:09;2.33;;;1.13;;
60847;SDS011;46681;47.696;9.140;2023-04-01T05:58:39;2.03;;;1.50;;
60847;SDS011;46681;47.696;9.140;2023-04-01T06:01:07;1.77;;;1.20;;
60847;SDS011;46681;47.696;9.140;2023-04-01T06:03:40;1.23;;;1.13;;
60847;SDS011;46681;47.696;9.140;2023-04-01T06:06:26;2.20;;;1.10;;
60847;SDS011;46681;47.696;9.140;2023-04-01T06:08:53;1.10;;;0.90;;
60847;SDS011;46681;47.696;9.140;2023-04-01T06:28:58;6.43;;;1.00;;
60847;SDS011;46681;47.696;9.140;2023-04-01T06:43:04;2.40;;;1.23;;
60847;SDS011;46681;47.696;9.140;2023-04-01T06:45:53;8.70;;;2.33;;
60847;SDS011;46681;47.696;9.140;2023-04-01T06:48:43;3.47;;;1.13;;
60847;SDS011;46681;47.696;9.140;2023-04-01T06:51:52;1.93;;;0.97;;
60847;SDS011;46681;47.696;9.140;2023-04-01T06:54:31;2.23;;;0.97;;
60847;SDS011;46681;47.696;9.140;2023-04-01T06:57:38;2.33;;;0.97;;
60847;SDS011;46681;47.696;9.140;2023-04-01T07:00:35;1.20;;;0.80;;
60847;SDS011;46681;47.696;9.140;2023-04-01T07:05:57;1.90;;;1.00;;
60847;SDS011;46681;47.696;9.140;2023-04-01T07:08:33;2.27;;;1.20;;
60847;SDS011;46681;47.696;9.140;2023-04-01T07:11:05;0.80;;;0.80;;
60847;SDS011;46681;47.696;9.140;2023-04-01T07:13:41;1.80;;;0.90;;
60847;SDS011;46681;47.696;9.140;2023-04-01T07:16:14;1.60;;;0.90;;
60847;SDS011;46681;47.696;9.140;2023-04-01T07:19:05;1.60;;;1.00;;
60847;SDS011;46681;47.696;9.140;2023-04-01T07:22:04;1.13;;;0.90;;
60847;SDS011;46681;47.696;9.140;2023-04-01T07:24:55;0.80;;;0.80;;
60847;SDS011;46681;47.696;9.140;2023-04-01T07:33:55;0.90;;;0.80;;
60847;SDS011;46681;47.696;9.140;2023-04-01T07:39:31;0.70;;;0.70;;
60847;SDS011;46681;47.696;9.140;2023-04-01T07:54:28;1.67;;;0.90;;
60847;SDS011;46681;47.696;9.140;2023-04-01T08:02:57;1.43;;;0.90;;
60847;SDS011;46681;47.696;9.140;2023-04-01T08:08:42;1.67;;;0.80;;
60847;SDS011;46681;47.696;9.140;2023-04-01T08:17:05;2.77;;;1.30;;
60847;SDS011;46681;47.696;9.140;2023-04-01T08:20:16;2.40;;;0.90;;
60847;SDS011;46681;47.696;9.140;2023-04-01T08:22:50;0.90;;;0.90;;
60847;SDS011;46681;47.696;9.140;2023-04-01T08:25:28;1.00;;;1.00;;
60847;SDS011;46681;47.696;9.140;2023-04-01T08:31:29;1.37;;;0.93;;
60847;SDS011;46681;47.696;9.140;2023-04-01T08:34:15;0.73;;;0.73;;
60847;SDS011;46681;47.696;9.140;2023-04-01T08:36:58;1.03;;;0.90;;
60847;SDS011;46681;47.696;9.140;2023-04-01T08:39:32;1.23;;;1.13;;
60847;SDS011;46681;47.696;9.140;2023-04-01T08:56:14;0.77;;;0.77;;
60847;SDS011;46681;47.696;9.140;2023-04-01T08:59:11;0.70;;;0.70;;
60847;SDS011;46681;47.696;9.140;2023-04-01T09:07:42;0.83;;;0.80;;
60847;SDS011;46681;47.696;9.140;2023-04-01T09:22:19;0.90;;;0.90;;
60847;SDS011;46681;47.696;9.140;2023-04-01T09:44:01;1.23;;;0.70;;
60847;SDS011;46681;47.696;9.140;2023-04-01T09:52:54;0.67;;;0.67;;
60847;SDS011;46681;47.696;9.140;2023-04-01T10:01:48;0.70;;;0.70;;
60847;SDS011;46681;47.696;9.140;2023-04-01T10:28:12;1.80;;;0.90;;
60847;SDS011;46681;47.696;9.140;2023-04-01T10:31:19;1.73;;;0.70;;
60847;SDS011;46681;47.696;9.140;2023-04-01T10:37:08;0.93;;;0.90;;
60847;SDS011;46681;47.696;9.140;2023-04-01T10:54:39;1.23;;;0.60;;
60847;SDS011;46681;47.696;9.140;2023-04-01T11:13:51;0.60;;;0.60;;
60847;SDS011;46681;47.696;9.140;2023-04-01T11:31:10;0.80;;;0.80;;
60847;SDS011;46681;47.696;9.140;2023-04-01T11:37:13;0.70;;;0.70;;
60847;SDS011;46681;47.696;9.140;2023-04-01T11:43:15;0.70;;;0.70;;
60847;SDS011;46681;47.696;9.140;2023-04-01T11:46:12;1.33;;;0.67;;
60847;SDS011;46681;47.696;9.140;2023-04-01T11:49:05;0.67;;;0.67;;
60847;SDS011;46681;47.696;9.140;2023-04-01T11:52:10;0.63;;;0.63;;
60847;SDS011;46681;47.696;9.140;2023-04-01T12:00:25;0.60;;;0.60;;
60847;SDS011;46681;47.696;9.140;2023-04-01T12:06:05;0.60;;;0.60;;
60847;SDS011;46681;47.696;9.140;2023-04-01T12:08:57;0.60;;;0.60;;
60847;SDS011;46681;47.696;9.140;2023-04-01T12:11:48;0.60;;;0.60;;
60847;SDS011;46681;47.696;9.140;2023-04-01T12:23:26;0.70;;;0.70;;
60847;SDS011;46681;47.696;9.140;2023-04-01T12:26:06;0.70;;;0.70;;
60847;SDS011;46681;47.696;9.140;2023-04-01T12:44:13;0.70;;;0.70;;
60847;SDS011;46681;47.696;9.140;2023-04-01T13:09:45;0.60;;;0.60;;
60847;SDS011;46681;47.696;9.140;2023-04-01T13:15:48;0.60;;;0.60;;
60847;SDS011;46681;47.696;9.140;2023-04-01T13:19:09;0.70;;;0.70;;
60847;SDS011;46681;47.696;9.140;2023-04-01T13:21:34;0.70;;;0.70;;
60847;SDS011;46681;47.696;9.140;2023-04-01T13:24:39;0.60;;;0.60;;
60847;SDS011;46681;47.696;9.140;2023-04-01T13:35:41;0.57;;;0.57;;
60847;SDS011;46681;47.696;9.140;2023-04-01T13:41:48;0.60;;;0.60;;
60847;SDS011;46681;47.696;9.140;2023-04-01T13:58:42;0.50;;;0.50;;
60847;SDS011;46681;47.696;9.140;2023-04-01T14:18:29;0.83;;;0.73;;
60847;SDS011;46681;47.696;9.140;2023-04-01T14:35:19;0.60;;;0.60;;
60847;SDS011;46681;47.696;9.140;2023-04-01T14:38:25;2.00;;;0.83;;
60847;SDS011;46681;47.696;9.140;2023-04-01T14:49:46;0.80;;;0.80;;
60847;SDS011;46681;47.696;9.140;2023-04-01T14:52:15;0.80;;;0.80;;
60847;SDS011;46681;47.696;9.140;2023-04-01T15:00:48;2.63;;;0.80;;
60847;SDS011;46681;47.696;9.140;2023-04-01T15:03:48;0.90;;;0.87;;
60847;SDS011;46681;47.696;9.140;2023-04-01T15:14:50;0.60;;;0.60;;
60847;SDS011;46681;47.696;9.140;2023-04-01T15:26:32;0.80;;;0.80;;
60847;SDS011;46681;47.696;9.140;2023-04-01T15:35:21;0.80;;;0.80;;
60847;SDS011;46681;47.696;9.140;2023-04-01T15:37:54;0.83;;;0.70;;
60847;SDS011;46681;47.696;9.140;2023-04-01T15:40:29;0.60;;;0.60;;
60847;SDS011;46681;47.696;9.140;2023-04-01T15:43:23;0.60;;;0.60;;
60847;SDS011;46681;47.696;9.140;2023-04-01T15:49:03;0.50;;;0.50;;
60847;SDS011;46681;47.696;9.140;2023-04-01T15:51:45;0.87;;;0.73;;
60847;SDS011;46681;47.696;9.140;2023-04-01T16:05:27;0.60;;;0.60;;
60847;SDS011;46681;47.696;9.140;2023-04-01T16:11:36;0.50;;;0.50;;
60847;SDS011;46681;47.696;9.140;2023-04-01T16:20:25;0.90;;;0.90;;
60847;SDS011;46681;47.696;9.140;2023-04-01T16:23:40;0.90;;;0.73;;
60847;SDS011;46681;47.696;9.140;2023-04-01T16:26:44;0.70;;;0.70;;
60847;SDS011;46681;47.696;9.140;2023-04-01T16:29:48;0.80;;;0.80;;
60847;SDS011;46681;47.696;9.140;2023-04-01T16:43:49;0.93;;;0.80;;
60847;SDS011;46681;47.696;9.140;2023-04-01T16:46:38;0.60;;;0.60;;
60847;SDS011;46681;47.696;9.140;2023-04-01T16:49:37;0.70;;;0.70;;
60847;SDS011;46681;47.696;9.140;2023-04-01T16:55:46;0.80;;;0.80;;
60847;SDS011;46681;47.696;9.140;2023-04-01T17:04:14;0.70;;;0.70;;
60847;SDS011;46681;47.696;9.140;2023-04-01T17:21:10;1.00;;;1.00;;
60847;SDS011;46681;47.696;9.140;2023-04-01T17:23:50;1.07;;;1.00;;
60847;SDS011;46681;47.696;9.140;2023-04-01T17:32:11;1.93;;;0.80;;
60847;SDS011;46681;47.696;9.140;2023-04-01T17:41:05;1.07;;;1.00;;
60847;SDS011;46681;47.696;9.140;2023-04-01T17:44:11;0.83;;;0.83;;
60847;SDS011;46681;47.696;9.140;2023-04-01T17:56:13;1.00;;;1.00;;
60847;SDS011;46681;47.696;9.140;2023-04-01T18:17:27;2.10;;;0.80;;
60847;SDS011;46681;47.696;9.140;2023-04-01T18:26:07;0.97;;;0.97;;
60847;SDS011;46681;47.696;9.140;2023-04-01T18:31:46;1.00;;;0.90;;
60847;SDS011;46681;47.696;9.140;2023-04-01T18:37:53;2.17;;;0.90;;
60847;SDS011;46681;47.696;9.140;2023-04-01T18:40:57;1.03;;;0.73;;
60847;SDS011;46681;47.696;9.140;2023-04-01T18:52:23;0.90;;;0.90;;
60847;SDS011;46681;47.696;9.140;2023-04-01T18:57:54;0.70;;;0.70;;
60847;SDS011;46681;47.696;9.140;2023-04-01T19:00:52;0.90;;;0.90;;
60847;SDS011;46681;47.696;9.140;2023-04-01T19:03:34;1.70;;;1.30;;
60847;SDS011;46681;47.696;9.140;2023-04-01T19:06:20;0.90;;;0.90;;
60847;SDS011;46681;47.696;9.140;2023-04-01T19:08:55;1.00;;;0.90;;
60847;SDS011;46681;47.696;9.140;2023-04-01T19:19:55;0.80;;;0.80;;
60847;SDS011;46681;47.696;9.140;2023-04-01T19:22:50;0.80;;;0.80;;
60847;SDS011;46681;47.696;9.140;2023-04-01T19:25:56;1.00;;;0.90;;
60847;SDS011;46681;47.696;9.140;2023-04-01T19:42:50;0.73;;;0.73;;
60847;SDS011;46681;47.696;9.140;2023-04-01T19:52:59;1.27;;;1.07;;
60847;SDS011;46681;47.696;9.140;2023-04-01T19:56:07;0.90;;;0.90;;
60847;SDS011;46681;47.696;9.140;2023-04-01T19:58:48;0.70;;;0.70;;
60847;SDS011;46681;47.696;9.140;2023-04-01T20:01:31;0.80;;;0.80;;
60847;SDS011;46681;47.696;9.140;2023-04-01T20:04:17;0.87;;;0.80;;
60847;SDS011;46681;47.696;9.140;2023-04-01T20:10:06;0.70;;;0.70;;
60847;SDS011;46681;47.696;9.140;2023-04-01T20:13:00;0.90;;;0.90;;
60847;SDS011;46681;47.696;9.140;2023-04-01T20:21:55;1.00;;;1.00;;
60847;SDS011;46681;47.696;9.140;2023-04-01T20:25:01;1.17;;;0.90;;
60847;SDS011;46681;47.696;9.140;2023-04-01T20:52:41;0.87;;;0.80;;
60847;SDS011;46681;47.696;9.140;2023-04-01T21:07:05;0.90;;;0.90;;
60847;SDS011;46681;47.696;9.140;2023-04-01T21:24:35;1.00;;;1.00;;
60847;SDS011;46681;47.696;9.140;2023-04-01T21:30:12;0.90;;;0.70;;
60847;SDS011;46681;47.696;9.140;2023-04-01T22:02:08;0.70;;;0.70;;
60847;SDS011;46681;47.696;9.140;2023-04-01T22:05:16;1.03;;;1.00;;
60847;SDS011;46681;47.696;9.140;2023-04-01T22:13:25;1.33;;;1.23;;
60847;SDS011;46681;47.696;9.140;2023-04-01T22:18:45;1.07;;;1.07;;
60847;SDS011;46681;47.696;9.140;2023-04-01T22:24:27;1.07;;;1.07;;
60847;SDS011;46681;47.696;9.140;2023-04-01T22:27:38;0.90;;;0.90;;
60847;SDS011;46681;47.696;9.140;2023-04-01T22:30:30;0.73;;;0.73;;
60847;SDS011;46681;47.696;9.140;2023-04-01T22:43:55;1.00;;;1.00;;
60847;SDS011;46681;47.696;9.140;2023-04-01T22:49:07;0.93;;;0.93;;
60847;SDS011;46681;47.696;9.140;2023-04-01T22:51:54;1.07;;;1.03;;
60847;SDS011;46681;47.696;9.140;2023-04-01T22:54:31;0.90;;;0.90;;
60847;SDS011;46681;47.696;9.140;2023-04-01T22:57:07;1.03;;;1.03;;
60847;SDS011;46681;47.696;9.140;2023-04-01T23:02:38;1.17;;;1.17;;
60847;SDS011;46681;47.696;9.140;2023-04-01T23:05:15;1.00;;;1.00;;
60847;SDS011;46681;47.696;9.140;2023-04-01T23:13:13;1.00;;;1.00;;
60847;SDS011;46681;47.696;9.140;2023-04-01T23:15:43;0.90;;;0.90;;
60847;SDS011;46681;47.696;9.140;2023-04-01T23:26:59;1.00;;;1.00;;
60847;SDS011;46681;47.696;9.140;2023-04-01T23:29:41;1.30;;;1.03;;
60847;SDS011;46681;47.696;9.140;2023-04-01T23:32:13;0.80;;;0.80;;
60847;SDS011;46681;47.696;9.140;2023-04-01T23:34:51;0.90;;;0.90;;
60847;SDS011;46681;47.696;9.140;2023-04-01T23:37:24;1.03;;;0.93;;
60847;SDS011;46681;47.696;9.140;2023-04-01T23:39:53;1.03;;;0.90;;
60847;SDS011;46681;47.696;9.140;2023-04-01T23:45:01;1.00;;;1.00;;
60847;SDS011;46681;47.696;9.140;2023-04-01T23:47:41;1.00;;;1.00;;
60847;SDS011;46681;47.696;9.140;2023-04-01T23:50:14;0.93;;;0.93;;
60847;SDS011;46681;47.696;9.140;2023-04-01T23:52:43;1.00;;;1.00;;
60847;SDS011;46681;47.696;9.140;2023-04-01T23:55:15;0.93;;;0.93;;
60847;SDS011;46681;47.696;9.140;2023-04-01T23:58:37;1.47;;;1.07;;
